25/6 a 3/7 - Circulación más fría en todo el país, freezer patagónico. Grandes nevadas Patagonia/Cordillera.

Avatar de Usuario
Diecha
Mensajes: 11278
Registrado: Jue Ago 25, 2011 9:31 pm
Ubicación: Lomas de Zamora

Re: 25/6 a 2/7 - Circulación más fría en todo el país. Freezer patagónico con grandes nevadas.

Mensaje por Diecha » Sab Jun 27, 2020 1:26 am

Cipolletti:
Imagen
www.instagram.com/p/CB7Fqgds1GY/

Darwin:
Imagen
Spoiler
Mostrar
Imagen
Imagen
ImagenImagen
Imagen
Imagen
www.instagram.com/p/CB7PLwPFF2A/

Imagen

Imagen
Spoiler
Mostrar
Imagen
Imagen
Imagen
Imagen
Imagen
Imagen
Imagen
Imagen
Imagen
Imagen
Imagen
Imagen
Imagen
Imagen
Imagen
Última edición por Diecha el Dom Jun 28, 2020 10:06 pm, editado 1 vez en total.

Avatar de Usuario
dlm86_fv
Mensajes: 4114
Registrado: Mié Abr 13, 2011 1:04 am
Ubicación: Estanislao Severo Zeballos, Florencio Varela, Gran Buenos Aires
Contactar:

Re: 25/6 a 2/7 - Circulación más fría en todo el país. Freezer patagónico con grandes nevadas.

Mensaje por dlm86_fv » Sab Jun 27, 2020 4:17 am

Nevada persistente en Neuquén
Spoiler
Mostrar
SAZN,2020,06,26,12,00,METAR SAZN 261200Z NIL=
SAZN,2020,06,26,12,35,SPECI SAZN 261235Z 11014KT 9999 -DZSN SCT030 BKN035 03/M04 Q1022=
SAZN,2020,06,26,13,00,METAR SAZN 261300Z NIL=
SAZN,2020,06,26,14,00,METAR SAZN 261400Z 09013KT 9999 FEW050 BKN 060 03/M04 Q1022=
SAZN,2020,06,26,15,00,METAR SAZN 261500Z 11015KT 9999 SCT030 BKN035 03/M04 Q1022=
SAZN,2020,06,26,16,00,METAR SAZN 261600Z 11010KT 4000 -SN BKN020 SCT025 03/M02 Q1022=
SAZN,2020,06,26,17,00,METAR SAZN 261700Z 11004KT 2000 -SN BKN020 SCT025 02/M00 Q1022=
SAZN,2020,06,26,18,00,METAR SAZN 261800Z 11008KT 1500 -DZSN SCT015 BKN020 01/00 Q1021=
SAZN,2020,06,26,18,10,SPECI SAZN 261810Z 11007KT 0300 VV/// +SN 01/01 Q1021=
SAZN,2020,06,26,19,00,METAR SAZN 261900Z 11006KT 0400 FGSN OVC008 01/01 Q1021=
SAZN,2020,06,26,19,17,SPECI SAZN 261917Z 11006KT 1500 BRSN OVC010 01/01 Q1021=
SAZN,2020,06,26,20,00,METAR SAZN 262000Z 11008KT 2000 BRSN SCT006 BKN008 01/00 Q1021=
SAZN,2020,06,26,21,00,METAR SAZN 262100Z 11005KT 1500 BRSN SCT006 BKN008 01/00 Q1022=
SAZN,2020,06,26,22,00,METAR SAZN 262200Z 14003KT 9999 -SN SCT008 BKN012 01/00 Q1022=
SAZN,2020,06,26,22,20,SPECI SAZN 262220Z 11003KT 1200 BRSN OVC008 01/00 Q1023=
SAZN,2020,06,26,23,00,METAR SAZN 262300Z 11004KT 2000 SNBR OVC008 01/00 Q1023=
SAZN,2020,06,27,00,00,METAR SAZN 270000Z 11005KT 8000 -DZ OVC008 01/00 Q1023=
SAZN,2020,06,27,01,00,METAR SAZN 270100Z 11005KT 8000 OVC008 01/M00 Q1024=
SAZN,2020,06,27,02,00,METAR SAZN 270200Z 14005KT 5000 DZ OVC008 01/M00 Q1024=
SAZN,2020,06,27,03,00,METAR SAZN 270300Z 14004KT 1000 SN OVC008 00/00 Q1024=
SAZN,2020,06,27,04,00,METAR SAZN 270400Z 14003KT 1000 SN OVC008 00/00 Q1025=
SAZN,2020,06,27,05,00,METAR SAZN 270500Z 09004KT 1000 SN OVC008 00/00 Q1025=
SAZN,2020,06,27,06,00,METAR COR SAZN 270600Z 14003KT 2000 DZSN OVC008 00/00 Q1025=
SAZN,2020,06,27,07,00,METAR SAZN 270700Z 09003KT 2000 DZSN OVC008 00/00 Q1025=
Por muy larga que sea la tormenta, el sol siempre vuelve a brillar entre las nubes.

Atte, Diego de Varela.

Imagen

and96
Mensajes: 6142
Registrado: Mié Ago 15, 2012 2:32 pm
Ubicación: Tandil, BA

Re: 25/6 a 2/7 - Circulación más fría en todo el país. Freezer patagónico con grandes nevadas.

Mensaje por and96 » Sab Jun 27, 2020 4:45 am

La EMA de Bahía Blanca tiene 2,3 con lluvia

Edito, ahora la EMA de Bahía Blanca reporta lluvia y llovizna con 2,0°C (Conicet)

Edito 6 AM

Por acá empezó a lloviznar (poco, veremos cuánto dura) la temperatura en la EMA ahora está en 3,5°C.

Avatar de Usuario
stormchaserAlberto
Mensajes: 8798
Registrado: Jue Feb 20, 2014 2:34 am
Ubicación: Río Tercero,Córdoba.
Contactar:

Re: 25/6 a 2/7 - Circulación más fría en todo el país. Freezer patagónico con grandes nevadas.

Mensaje por stormchaserAlberto » Sab Jun 27, 2020 8:31 am

Parece que cayeron un par de copos por Tornquist. Es el único reporte que hay :P
EL VIKINGO escribió:yo digo que no veo diferencia entre una maxima de 32.5 y una de 34

Danywilde
Mensajes: 2513
Registrado: Mar Ene 24, 2012 1:41 pm
Ubicación: Wilde, Buenos Aires

Re: 25/6 a 2/7 - Circulación más fría en todo el país. Freezer patagónico con grandes nevadas.

Mensaje por Danywilde » Sab Jun 27, 2020 8:32 am

Nublado y frío amanecer en el AMBA.... NADA DEL OTRO MUNDO. 7.9 °C en mi patio, en calma.

Avatar de Usuario
Marcelo
Mensajes: 5794
Registrado: Jue Jul 30, 2009 3:42 pm
Ubicación: Villa Crespo, Ciudad de Buenos Aires

Re: 25/6 a 2/7 - Circulación más fría en todo el país. Freezer patagónico con grandes nevadas.

Mensaje por Marcelo » Sab Jun 27, 2020 9:56 am

Mínimas intensas en el sur:
Perito Moreno: -19,0°C
Río Grande: -15,0°C
Gobernador Gregores: -13,8°C
Paso de Indios: -12,4°C
El Calafate: -11,0°C

Edit: Perito Moreno registró -19,8°C a las 10hs!
La posta para lo que sucede en Buenos Aires la tiene la estación de AEROPARQUE.

Mis threads de Climatología:
Mapas Climáticos de Argentina
Temperaturas Extremas de Argentina
Nevadas en Sitios Inusuales

Avatar de Usuario
Ale de Castelar
Mensajes: 25568
Registrado: Sab Mar 03, 2012 12:25 pm
Ubicación: Caballito

Re: 25/6 a 2/7 - Circulación más fría en todo el país. Freezer patagónico con grandes nevadas.

Mensaje por Ale de Castelar » Sab Jun 27, 2020 10:56 am

Duval, La Pampa



Villa Regina

Avatar de Usuario
Marianol
Mensajes: 230
Registrado: Jue Feb 18, 2010 9:11 am

Re: 25/6 a 2/7 - Circulación más fría en todo el país. Freezer patagónico con grandes nevadas.

Mensaje por Marianol » Sab Jun 27, 2020 11:44 am

Efectivamente, nevó en el centro sur de La Pampa, lugares entre 200 y 600 mts. sobre el nivel del mar, el ya mencionado Gobernador Duval, Puelches y las Sierras de Lihue Calel.
https://www.eldiariodelapampa.com.ar/lo ... y-en-duval

Avatar de Usuario
HernanCba
Mensajes: 3082
Registrado: Sab Mar 02, 2013 1:21 am
Ubicación: Cosquín, Valle de Punilla, Córdoba
Contactar:

Re: 25/6 a 2/7 - Circulación más fría en todo el país. Freezer patagónico con grandes nevadas.

Mensaje por HernanCba » Sab Jun 27, 2020 11:49 am

Marcelo escribió:Mínimas intensas en el sur:
Perito Moreno: -19,0°C
Río Grande: -15,0°C
Gobernador Gregores: -13,8°C
Paso de Indios: -12,4°C
El Calafate: -11,0°C

Edit: Perito Moreno registró -19,8°C a las 10hs!
No es récord Perito Moreno? En la página del SMN figura -18.2°C la mínima más baja el 21 de junio de 2002

Avatar de Usuario
Ale de Castelar
Mensajes: 25568
Registrado: Sab Mar 03, 2012 12:25 pm
Ubicación: Caballito

Re: 25/6 a 2/7 - Circulación más fría en todo el país. Freezer patagónico con grandes nevadas.

Mensaje por Ale de Castelar » Sab Jun 27, 2020 11:49 am

PN Lihue Calel, La Pampa

Responder